createdAt,value
2018-09-19T00:02:25.344Z,3.60
2018-09-19T00:04:53.702Z,3.30
2018-09-19T00:07:22.098Z,3.73
2018-09-19T00:09:50.461Z,3.60
2018-09-19T00:12:18.815Z,3.30
2018-09-19T00:14:47.095Z,3.27
2018-09-19T00:17:15.458Z,3.03
2018-09-19T00:19:43.754Z,3.13
2018-09-19T00:22:12.030Z,3.17
2018-09-19T00:24:40.414Z,3.93
2018-09-19T00:27:08.698Z,3.50
2018-09-19T00:29:37.100Z,3.23
2018-09-19T00:32:05.447Z,2.90
2018-09-19T00:34:33.785Z,3.30
2018-09-19T00:37:02.042Z,2.93
2018-09-19T00:39:30.393Z,3.20
2018-09-19T00:41:58.789Z,3.10
2018-09-19T00:44:27.148Z,3.33
2018-09-19T00:46:55.493Z,3.37
2018-09-19T00:49:23.820Z,3.43
2018-09-19T00:51:52.196Z,3.33
2018-09-19T00:54:20.580Z,3.70
2018-09-19T00:56:48.940Z,3.27
2018-09-19T00:59:17.239Z,3.60
2018-09-19T01:01:45.629Z,3.20
2018-09-19T01:04:14.013Z,3.33
2018-09-19T01:06:42.379Z,3.23
2018-09-19T01:09:10.780Z,2.93
2018-09-19T01:11:39.485Z,3.53
2018-09-19T01:14:07.842Z,3.10
2018-09-19T01:16:36.202Z,3.37
2018-09-19T01:19:04.609Z,3.40
2018-09-19T01:21:32.961Z,3.00
2018-09-19T01:24:01.337Z,2.63
2018-09-19T01:26:29.845Z,2.93
2018-09-19T01:28:58.452Z,2.83
2018-09-19T01:31:26.784Z,2.70
2018-09-19T01:33:55.181Z,2.63
2018-09-19T01:36:23.564Z,2.60
2018-09-19T01:38:52.077Z,2.73
2018-09-19T01:41:20.421Z,2.27
2018-09-19T01:43:49.250Z,2.37
2018-09-19T01:46:17.552Z,2.50
2018-09-19T01:48:45.850Z,2.70
2018-09-19T01:51:14.196Z,2.40
2018-09-19T01:53:42.540Z,2.57
2018-09-19T01:56:10.870Z,2.20
2018-09-19T01:58:39.180Z,2.53
2018-09-19T02:01:07.586Z,2.83
2018-09-19T02:03:35.947Z,2.97
2018-09-19T02:06:04.337Z,2.30
2018-09-19T02:08:32.653Z,2.33
2018-09-19T02:11:00.941Z,2.67
2018-09-19T02:13:29.386Z,2.87
2018-09-19T02:15:57.711Z,2.57
2018-09-19T02:18:26.086Z,2.27
2018-09-19T02:20:54.678Z,2.20
2018-09-19T02:23:22.895Z,2.77
2018-09-19T02:25:51.244Z,2.70
2018-09-19T02:28:19.639Z,2.63
2018-09-19T02:30:48.035Z,2.63
2018-09-19T02:33:16.360Z,2.37
2018-09-19T02:35:44.742Z,2.20
2018-09-19T02:38:14.068Z,2.90
2018-09-19T02:40:42.432Z,2.57
2018-09-19T02:43:10.843Z,2.23
2018-09-19T02:45:39.196Z,2.30
2018-09-19T02:48:07.576Z,2.20
2018-09-19T02:50:35.960Z,1.90
2018-09-19T02:53:04.350Z,2.27
2018-09-19T02:55:32.741Z,2.17
2018-09-19T02:58:01.054Z,2.97
2018-09-19T03:00:29.494Z,2.43
2018-09-19T03:02:57.780Z,2.30
2018-09-19T03:05:26.101Z,2.67
2018-09-19T03:07:54.365Z,3.00
2018-09-19T03:10:22.691Z,2.10
2018-09-19T03:12:51.049Z,2.50
2018-09-19T03:15:19.367Z,2.50
2018-09-19T03:17:47.836Z,2.43
2018-09-19T03:20:16.130Z,2.57
2018-09-19T03:22:44.502Z,2.97
2018-09-19T03:25:13.767Z,2.00
2018-09-19T03:27:42.210Z,2.07
2018-09-19T03:30:10.559Z,2.77
2018-09-19T03:32:38.935Z,2.63
2018-09-19T03:35:07.284Z,2.47
2018-09-19T03:37:36.626Z,2.33
2018-09-19T03:40:05.072Z,3.07
2018-09-19T03:42:33.511Z,2.43
2018-09-19T03:45:01.946Z,2.93
2018-09-19T03:47:30.393Z,2.33
2018-09-19T03:49:58.786Z,2.47
2018-09-19T03:52:27.248Z,3.13
2018-09-19T03:54:55.572Z,1.97
2018-09-19T03:57:23.953Z,2.30
2018-09-19T03:59:52.398Z,2.70
2018-09-19T04:02:20.679Z,2.57
2018-09-19T04:04:49.145Z,2.60
2018-09-19T04:07:17.485Z,2.50
2018-09-19T04:09:45.806Z,2.97
2018-09-19T04:12:14.113Z,2.77
2018-09-19T04:14:42.470Z,2.80
2018-09-19T04:17:10.909Z,2.63
2018-09-19T04:19:39.227Z,2.53
2018-09-19T04:22:07.529Z,3.17
2018-09-19T04:24:35.857Z,2.70
2018-09-19T04:27:04.242Z,2.67
2018-09-19T04:29:32.547Z,3.20
2018-09-19T04:32:00.934Z,2.80
2018-09-19T04:34:29.435Z,3.00
2018-09-19T04:36:57.785Z,3.27
2018-09-19T04:39:26.061Z,2.63
2018-09-19T04:41:54.310Z,3.03
2018-09-19T04:44:22.611Z,3.17
2018-09-19T04:46:50.923Z,3.43
2018-09-19T04:49:20.164Z,3.07
2018-09-19T04:51:48.517Z,2.77
2018-09-19T04:54:16.845Z,3.43
2018-09-19T04:56:45.298Z,2.87
2018-09-19T04:59:13.631Z,3.17
2018-09-19T05:01:42.049Z,3.17
2018-09-19T05:04:10.435Z,3.43
2018-09-19T05:06:38.778Z,3.27
2018-09-19T05:09:08.231Z,3.27
2018-09-19T05:11:36.651Z,3.50
2018-09-19T05:14:05.009Z,3.10
2018-09-19T05:16:33.312Z,2.90
2018-09-19T05:19:01.738Z,3.57
2018-09-19T05:21:30.063Z,3.87
2018-09-19T05:23:58.475Z,3.23
2018-09-19T05:26:26.881Z,3.47
2018-09-19T05:28:55.207Z,3.37
2018-09-19T05:31:23.607Z,3.07
2018-09-19T05:33:51.958Z,3.37
2018-09-19T05:36:20.386Z,3.70
2018-09-19T05:38:48.729Z,3.02
2018-09-19T05:41:17.095Z,3.57
2018-09-19T05:43:45.512Z,2.80
2018-09-19T05:46:13.922Z,3.17
2018-09-19T05:48:42.766Z,3.55
2018-09-19T05:51:11.941Z,3.45
2018-09-19T05:53:40.359Z,3.45
2018-09-19T05:56:08.734Z,2.90
2018-09-19T05:58:37.078Z,3.37
2018-09-19T06:01:05.336Z,3.10
2018-09-19T06:03:33.626Z,3.98
2018-09-19T06:06:02.017Z,3.52
2018-09-19T06:08:30.537Z,3.45
2018-09-19T06:10:58.935Z,3.20
2018-09-19T06:13:27.337Z,3.87
2018-09-19T06:15:55.689Z,3.10
2018-09-19T06:18:24.047Z,2.95
2018-09-19T06:20:52.398Z,3.50
2018-09-19T06:23:20.822Z,3.00
2018-09-19T06:25:49.140Z,2.80
2018-09-19T06:28:23.009Z,3.25
2018-09-19T06:30:51.324Z,3.02
2018-09-19T06:33:19.677Z,3.12
2018-09-19T06:35:47.968Z,3.17
2018-09-19T06:38:16.279Z,3.15
2018-09-19T06:40:44.594Z,2.77
2018-09-19T06:43:12.823Z,3.20
2018-09-19T06:45:41.227Z,2.65
2018-09-19T06:48:09.528Z,2.80
2018-09-19T06:50:37.896Z,3.15
2018-09-19T06:53:06.317Z,3.05
2018-09-19T06:55:34.615Z,2.40
2018-09-19T06:58:03.043Z,3.00
2018-09-19T07:00:31.454Z,2.83
2018-09-19T07:02:59.760Z,2.65
2018-09-19T07:05:28.635Z,2.60
2018-09-19T07:07:56.964Z,2.52
2018-09-19T07:10:25.372Z,2.72
2018-09-19T07:12:53.820Z,2.08
2018-09-19T07:15:22.196Z,2.22
2018-09-19T07:17:50.584Z,2.87
2018-09-19T07:20:18.959Z,2.45
2018-09-19T07:22:47.360Z,2.80
2018-09-19T07:25:15.707Z,2.25
2018-09-19T07:27:44.132Z,2.65
2018-09-19T07:30:12.533Z,2.20
2018-09-19T07:32:40.875Z,2.25
2018-09-19T07:35:09.256Z,1.52
2018-09-19T07:37:37.620Z,2.42
2018-09-19T07:40:06.060Z,2.35
2018-09-19T07:42:34.350Z,1.60
2018-09-19T07:45:02.723Z,2.10
2018-09-19T07:47:31.437Z,1.95
2018-09-19T07:49:59.792Z,2.15
2018-09-19T07:52:28.145Z,2.15
2018-09-19T07:54:56.426Z,2.25
2018-09-19T07:57:24.731Z,2.33
2018-09-19T07:59:53.140Z,1.42
2018-09-19T08:02:21.526Z,1.50
2018-09-19T08:04:49.878Z,2.00
2018-09-19T08:07:18.285Z,2.72
2018-09-19T08:09:46.924Z,1.92
2018-09-19T08:12:15.192Z,1.55
2018-09-19T08:14:43.494Z,1.70
2018-09-19T08:17:11.846Z,1.60
2018-09-19T08:19:40.150Z,1.67
2018-09-19T08:22:08.544Z,1.92
2018-09-19T08:24:36.947Z,1.77
2018-09-19T08:27:05.265Z,1.60
2018-09-19T08:29:33.611Z,1.65
2018-09-19T08:32:01.924Z,1.67
2018-09-19T08:34:30.251Z,1.80
2018-09-19T08:36:58.566Z,2.27
2018-09-19T08:39:27.866Z,1.82
2018-09-19T08:41:56.213Z,1.95
2018-09-19T08:44:24.627Z,2.33
2018-09-19T08:46:52.970Z,2.00
2018-09-19T08:49:21.330Z,1.90
2018-09-19T08:51:49.666Z,1.80
2018-09-19T08:54:17.990Z,1.62
2018-09-19T08:56:46.289Z,2.45
2018-09-19T08:59:14.610Z,2.27
2018-09-19T09:01:42.866Z,2.22
2018-09-19T09:04:11.302Z,1.95
2018-09-19T09:06:39.652Z,1.62
2018-09-19T09:09:08.218Z,2.27
2018-09-19T09:11:36.795Z,2.02
2018-09-19T09:14:05.121Z,1.67
2018-09-19T09:16:33.486Z,2.15
2018-09-19T09:19:01.859Z,1.72
2018-09-19T09:21:30.205Z,1.80
2018-09-19T09:23:58.588Z,1.60
2018-09-19T09:26:27.105Z,1.57
2018-09-19T09:28:55.507Z,1.80
2018-09-19T09:31:23.781Z,1.42
2018-09-19T09:33:52.195Z,1.40
2018-09-19T09:36:20.516Z,2.05
2018-09-19T09:38:48.877Z,1.80
2018-09-19T09:41:17.243Z,2.05
2018-09-19T09:43:45.549Z,1.70
2018-09-19T09:46:13.892Z,1.80
2018-09-19T09:48:42.245Z,1.47
2018-09-19T09:51:10.590Z,1.85
2018-09-19T09:53:39.037Z,1.57
2018-09-19T09:56:07.326Z,1.75
2018-09-19T09:58:36.667Z,1.87
2018-09-19T10:01:05.045Z,1.32
2018-09-19T10:03:33.346Z,1.55
2018-09-19T10:06:01.767Z,1.50
2018-09-19T10:08:30.152Z,1.77
2018-09-19T10:10:58.465Z,1.55
2018-09-19T10:13:26.924Z,2.10
2018-09-19T10:15:55.202Z,1.50
2018-09-19T10:18:23.600Z,1.87
2018-09-19T10:20:52.029Z,1.75
2018-09-19T10:23:20.330Z,1.42
2018-09-19T10:25:48.593Z,1.87
2018-09-19T10:28:16.890Z,2.08
2018-09-19T10:30:45.200Z,1.72
2018-09-19T10:33:13.633Z,1.20
2018-09-19T10:35:41.984Z,1.47
2018-09-19T10:38:10.330Z,1.52
2018-09-19T10:40:38.725Z,1.95
2018-09-19T10:43:07.179Z,1.75
2018-09-19T10:45:35.463Z,2.08
2018-09-19T10:48:03.991Z,1.50
2018-09-19T10:50:32.399Z,1.40
2018-09-19T10:53:00.654Z,1.80
2018-09-19T10:55:29.060Z,1.20
2018-09-19T10:57:57.463Z,1.52
2018-09-19T11:00:25.879Z,1.42
2018-09-19T11:02:54.241Z,1.47
2018-09-19T11:05:22.576Z,1.40
2018-09-19T11:07:50.925Z,1.57
2018-09-19T11:10:19.286Z,1.87
2018-09-19T11:12:47.609Z,1.67
2018-09-19T11:15:15.952Z,1.70
2018-09-19T11:17:44.265Z,1.50
2018-09-19T11:20:12.539Z,1.77
2018-09-19T11:22:40.806Z,2.02
2018-09-19T11:25:09.145Z,1.80
2018-09-19T11:27:37.457Z,1.80
2018-09-19T11:30:06.093Z,1.98
2018-09-19T11:32:34.437Z,1.60
2018-09-19T11:35:02.713Z,1.25
2018-09-19T11:37:30.993Z,1.50
2018-09-19T11:39:59.328Z,1.50
2018-09-19T11:42:27.652Z,1.75
2018-09-19T11:44:55.947Z,1.67
2018-09-19T11:47:24.278Z,1.25
2018-09-19T11:49:52.568Z,1.52
2018-09-19T11:52:20.902Z,1.55
2018-09-19T11:54:49.290Z,1.42
2018-09-19T11:57:17.738Z,1.70
2018-09-19T11:59:46.139Z,1.65
2018-09-19T12:02:14.496Z,1.80
2018-09-19T12:04:42.753Z,1.47
2018-09-19T12:07:11.142Z,1.82
2018-09-19T12:09:39.402Z,1.47
2018-09-19T12:12:07.721Z,1.65
2018-09-19T12:14:36.100Z,1.82
2018-09-19T12:17:04.486Z,1.72
2018-09-19T12:19:32.961Z,1.65
2018-09-19T12:22:01.412Z,1.72
2018-09-19T12:24:29.722Z,1.42
2018-09-19T12:26:58.179Z,2.05
2018-09-19T12:29:26.523Z,1.45
2018-09-19T12:31:54.853Z,2.02
2018-09-19T12:34:23.236Z,1.87
2018-09-19T12:36:51.713Z,1.50
2018-09-19T12:39:20.132Z,1.70
2018-09-19T12:41:48.535Z,1.62
2018-09-19T12:44:17.004Z,2.00
2018-09-19T12:46:45.383Z,1.60
2018-09-19T12:49:13.921Z,1.60
2018-09-19T12:51:42.200Z,1.55
2018-09-19T12:54:10.565Z,1.50
2018-09-19T12:56:38.920Z,1.70
2018-09-19T12:59:07.228Z,1.15
2018-09-19T13:01:35.552Z,1.10
2018-09-19T13:04:04.076Z,2.12
2018-09-19T13:06:32.535Z,1.37
2018-09-19T13:09:00.942Z,1.50
2018-09-19T13:11:29.243Z,1.42
2018-09-19T13:13:57.638Z,1.40
2018-09-19T13:16:26.184Z,1.52
2018-09-19T13:18:54.572Z,1.02
2018-09-19T13:21:22.884Z,1.75
2018-09-19T13:23:51.229Z,1.77
2018-09-19T13:26:19.654Z,1.37
2018-09-19T13:28:47.956Z,1.40
2018-09-19T13:31:16.252Z,1.92
2018-09-19T13:33:44.561Z,1.30
2018-09-19T13:36:12.919Z,1.20
2018-09-19T13:38:41.348Z,1.17
2018-09-19T13:41:09.680Z,1.37
2018-09-19T13:43:37.974Z,1.70
2018-09-19T13:46:06.597Z,1.20
2018-09-19T13:48:34.931Z,1.40
2018-09-19T13:51:15.283Z,1.17
2018-09-19T13:53:43.613Z,1.67
2018-09-19T13:56:11.960Z,1.75
2018-09-19T13:58:40.303Z,1.32
2018-09-19T14:01:08.605Z,1.17
2018-09-19T14:03:36.965Z,1.42
2018-09-19T14:06:05.263Z,1.37
2018-09-19T14:08:33.641Z,1.27
2018-09-19T14:11:02.003Z,1.25
2018-09-19T14:13:30.415Z,1.40
2018-09-19T14:15:58.855Z,1.27
2018-09-19T14:18:27.301Z,1.20
2018-09-19T14:20:55.686Z,1.25
2018-09-19T14:23:24.116Z,1.65
2018-09-19T14:25:52.468Z,1.02
2018-09-19T14:28:20.992Z,1.87
2018-09-19T14:30:49.329Z,1.00
2018-09-19T14:33:17.819Z,1.20
2018-09-19T14:35:46.242Z,1.00
2018-09-19T14:38:14.920Z,1.00
2018-09-19T14:40:43.301Z,1.20
2018-09-19T14:43:11.700Z,1.30
2018-09-19T14:45:40.191Z,1.25
2018-09-19T14:48:08.549Z,1.17
2018-09-19T14:50:36.927Z,1.50
2018-09-19T14:53:05.325Z,1.47
2018-09-19T14:55:33.768Z,1.50
2018-09-19T14:58:02.235Z,1.70
2018-09-19T15:00:30.578Z,1.50
2018-09-19T15:03:00.087Z,1.77
2018-09-19T15:05:28.409Z,1.55
2018-09-19T15:07:56.797Z,1.77
2018-09-19T15:10:25.207Z,1.50
2018-09-19T15:12:53.881Z,1.40
2018-09-19T15:15:22.272Z,1.92
2018-09-19T15:17:50.609Z,1.42
2018-09-19T15:20:19.152Z,1.75
2018-09-19T15:22:47.530Z,1.37
2018-09-19T15:25:15.965Z,1.65
2018-09-19T15:27:44.458Z,1.98
2018-09-19T15:30:12.887Z,1.75
2018-09-19T15:32:41.356Z,2.65
2018-09-19T15:35:09.720Z,2.40
2018-09-19T15:37:38.226Z,2.08
2018-09-19T15:40:06.642Z,1.90
2018-09-19T15:42:35.159Z,2.30
2018-09-19T15:45:03.394Z,2.65
2018-09-19T15:47:31.781Z,1.60
2018-09-19T15:50:00.159Z,2.00
2018-09-19T15:52:28.576Z,1.98
2018-09-19T15:54:57.189Z,2.27
2018-09-19T15:57:25.566Z,1.75
2018-09-19T15:59:53.858Z,2.42
2018-09-19T16:02:22.223Z,1.98
2018-09-19T16:04:50.532Z,1.82
2018-09-19T16:07:19.081Z,1.87
2018-09-19T16:09:47.455Z,2.00
2018-09-19T16:12:15.987Z,2.52
2018-09-19T16:14:44.299Z,2.37
2018-09-19T16:17:12.681Z,2.15
2018-09-19T16:19:41.044Z,2.30
2018-09-19T16:22:09.513Z,2.37
2018-09-19T16:24:38.055Z,2.72
2018-09-19T16:27:06.777Z,2.10
2018-09-19T16:29:35.161Z,2.17
2018-09-19T16:32:03.467Z,2.55
2018-09-19T16:34:31.812Z,2.40
2018-09-19T16:37:00.241Z,2.12
2018-09-19T16:39:28.615Z,2.10
2018-09-19T16:41:57.124Z,2.52
2018-09-19T16:44:25.701Z,2.42
2018-09-19T16:46:54.222Z,2.87
2018-09-19T16:49:22.673Z,2.20
2018-09-19T16:51:51.160Z,1.92
2018-09-19T16:54:19.535Z,2.95
2018-09-19T16:56:47.863Z,2.25
2018-09-19T16:59:16.243Z,2.87
2018-09-19T17:01:44.671Z,2.67
2018-09-19T17:04:13.123Z,2.87
2018-09-19T17:06:41.470Z,2.52
2018-09-19T17:09:09.760Z,2.37
2018-09-19T17:11:38.190Z,2.83
2018-09-19T17:14:06.784Z,2.52
2018-09-19T17:16:35.180Z,3.08
2018-09-19T17:19:03.475Z,2.62
2018-09-19T17:21:31.928Z,3.17
2018-09-19T17:24:00.261Z,2.45
2018-09-19T17:26:28.710Z,2.60
2018-09-19T17:28:57.123Z,2.80
2018-09-19T17:31:26.377Z,3.05
2018-09-19T17:33:54.890Z,2.65
2018-09-19T17:36:23.321Z,2.25
2018-09-19T17:38:51.624Z,2.92
2018-09-19T17:41:19.877Z,2.85
2018-09-19T17:43:48.258Z,2.62
2018-09-19T17:46:16.597Z,3.30
2018-09-19T17:48:44.955Z,3.47
2018-09-19T17:51:13.508Z,2.60
2018-09-19T17:53:41.970Z,2.40
2018-09-19T17:56:10.379Z,3.77
2018-09-19T17:58:38.680Z,2.80
2018-09-19T18:01:07.020Z,2.90
2018-09-19T18:03:35.368Z,2.95
2018-09-19T18:06:03.700Z,3.35
2018-09-19T18:08:32.076Z,3.37
2018-09-19T18:11:00.376Z,3.30
2018-09-19T18:13:28.774Z,3.17
2018-09-19T18:15:57.196Z,3.02
2018-09-19T18:18:25.978Z,2.98
2018-09-19T18:20:54.301Z,3.35
2018-09-19T18:23:22.727Z,3.10
2018-09-19T18:25:50.999Z,3.58
2018-09-19T18:28:19.395Z,2.87
2018-09-19T18:30:47.973Z,2.70
2018-09-19T18:33:16.460Z,3.20
2018-09-19T18:35:44.824Z,3.58
2018-09-19T18:38:13.197Z,3.67
2018-09-19T18:40:41.526Z,3.35
2018-09-19T18:43:09.908Z,3.10
2018-09-19T18:45:38.283Z,3.35
2018-09-19T18:48:06.668Z,4.03
2018-09-19T18:50:35.067Z,3.20
2018-09-19T18:53:03.454Z,3.75
2018-09-19T18:55:31.886Z,3.33
2018-09-19T18:58:00.286Z,3.05
2018-09-19T19:00:28.719Z,4.10
2018-09-19T19:02:57.064Z,3.80
2018-09-19T19:05:26.499Z,3.33
2018-09-19T19:07:55.016Z,3.45
2018-09-19T19:10:23.438Z,3.22
2018-09-19T19:12:51.807Z,3.17
2018-09-19T19:15:20.189Z,3.00
2018-09-19T19:17:48.609Z,3.05
2018-09-19T19:20:16.968Z,3.52
2018-09-19T19:22:45.303Z,3.95
2018-09-19T19:25:13.752Z,3.62
2018-09-19T19:27:42.061Z,3.43
2018-09-19T19:30:10.470Z,2.90
2018-09-19T19:32:38.866Z,3.47
2018-09-19T19:35:07.255Z,3.50
2018-09-19T19:37:35.608Z,3.83
2018-09-19T19:40:03.961Z,3.93
2018-09-19T19:42:32.255Z,3.40
2018-09-19T19:45:00.726Z,3.97
2018-09-19T19:47:29.127Z,4.23
2018-09-19T19:49:57.699Z,3.60
2018-09-19T19:52:26.082Z,3.30
2018-09-19T19:54:54.350Z,3.70
2018-09-19T19:57:22.740Z,3.47
2018-09-19T19:59:51.115Z,3.50
2018-09-19T20:02:19.778Z,4.17
2018-09-19T20:04:48.112Z,3.72
2018-09-19T20:07:16.460Z,3.60
2018-09-19T20:09:44.931Z,3.92
2018-09-19T20:12:13.286Z,3.23
2018-09-19T20:14:41.627Z,3.30
2018-09-19T20:17:10.045Z,3.20
2018-09-19T20:19:38.947Z,4.40
2018-09-19T20:22:10.012Z,3.73
2018-09-19T20:24:38.501Z,3.50
2018-09-19T20:27:07.250Z,3.72
2018-09-19T20:29:35.726Z,2.90
2018-09-19T20:32:04.214Z,3.20
2018-09-19T20:34:33.540Z,3.10
2018-09-19T20:37:01.933Z,3.83
2018-09-19T20:39:30.301Z,3.45
2018-09-19T20:41:58.771Z,4.10
2018-09-19T20:44:27.039Z,3.70
2018-09-19T20:46:55.390Z,3.37
2018-09-19T20:49:24.064Z,3.67
2018-09-19T20:51:52.376Z,3.33
2018-09-19T20:54:20.677Z,3.20
2018-09-19T20:56:49.082Z,3.20
2018-09-19T20:59:17.421Z,4.07
2018-09-19T21:01:45.836Z,3.43
2018-09-19T21:04:14.322Z,3.90
2018-09-19T21:06:44.684Z,3.47
2018-09-19T21:09:13.004Z,3.77
2018-09-19T21:11:41.435Z,3.83
2018-09-19T21:14:09.738Z,3.22
2018-09-19T21:16:38.020Z,3.80
2018-09-19T21:19:06.536Z,3.50
2018-09-19T21:21:35.074Z,3.40
2018-09-19T21:24:03.462Z,3.23
2018-09-19T21:26:31.775Z,3.20
2018-09-19T21:29:00.197Z,2.70
2018-09-19T21:31:28.540Z,3.17
2018-09-19T21:33:57.084Z,2.93
2018-09-19T21:36:25.415Z,2.80
2018-09-19T21:38:53.782Z,3.00
2018-09-19T21:41:22.253Z,3.13
2018-09-19T21:43:50.627Z,3.50
2018-09-19T21:46:19.006Z,3.07
2018-09-19T21:48:47.390Z,3.50
2018-09-19T21:51:15.697Z,3.77
2018-09-19T21:53:44.017Z,3.50
2018-09-19T21:58:50.444Z,4.00
2018-09-19T22:02:21.952Z,3.73
2018-09-19T22:04:50.224Z,3.67
2018-09-19T22:07:18.583Z,3.43
2018-09-19T22:09:46.936Z,3.45
2018-09-19T22:12:15.294Z,3.53
2018-09-19T22:14:43.837Z,4.40
2018-09-19T22:17:12.184Z,3.07
2018-09-19T22:19:40.542Z,3.67
2018-09-19T22:22:08.931Z,3.62
2018-09-19T22:24:37.281Z,3.30
2018-09-19T22:27:05.797Z,3.73
2018-09-19T22:29:34.146Z,3.87
2018-09-19T22:32:02.415Z,3.17
2018-09-19T22:34:30.825Z,3.80
2018-09-19T22:36:59.219Z,3.47
2018-09-19T22:39:27.537Z,3.17
2018-09-19T22:41:55.862Z,3.03
2018-09-19T22:44:24.196Z,3.43
2018-09-19T22:46:52.496Z,3.17
2018-09-19T22:49:20.773Z,3.50
2018-09-19T22:51:49.079Z,3.23
2018-09-19T22:54:17.452Z,3.80
2018-09-19T22:56:45.938Z,3.10
2018-09-19T22:59:14.336Z,3.42
2018-09-19T23:01:42.755Z,2.67
2018-09-19T23:04:11.048Z,3.37
2018-09-19T23:06:39.327Z,3.17
2018-09-19T23:09:08.601Z,3.40
2018-09-19T23:11:36.930Z,3.10
2018-09-19T23:14:05.293Z,2.80
2018-09-19T23:16:33.666Z,3.03
2018-09-19T23:19:02.108Z,3.07
2018-09-19T23:21:30.455Z,2.93
2018-09-19T23:23:58.793Z,3.43
2018-09-19T23:26:27.081Z,3.20
2018-09-19T23:28:55.376Z,3.10
2018-09-19T23:31:23.779Z,2.97
2018-09-19T23:33:52.134Z,3.00
2018-09-19T23:36:20.721Z,3.20
2018-09-19T23:38:49.109Z,2.90
2018-09-19T23:41:17.475Z,2.80
2018-09-19T23:43:45.932Z,3.10
2018-09-19T23:46:14.235Z,2.67
2018-09-19T23:48:42.574Z,3.17
2018-09-19T23:51:10.863Z,2.87
2018-09-19T23:53:39.155Z,3.03
2018-09-19T23:56:07.415Z,3.33
2018-09-19T23:58:35.773Z,3.20
